Time;durP1;ratioP1;P1;durP2;ratioP2;P2;SDS_P1;SDS_P2;PMS_P1;PMS_P2;Temp;Humidity;BMP_temperature;BMP_pressure;BME280_temperature;BME280_humidity;BME280_pressure;Samples;Min_cycle;Max_cycle;Signal;HPM_P1;HPM_P2
2021/07/29 00:01:02;;;;;;;3.97;3.63;;;16.20;99.90;;;;;;5031442;28;20982;-70
2021/07/29 00:03:29;;;;;;;4.23;3.27;;;16.20;99.90;;;;;;5031847;28;20487;-70
2021/07/29 00:05:56;;;;;;;4.20;3.60;;;16.20;99.90;;;;;;5031983;28;20484;-69
2021/07/29 00:08:24;;;;;;;4.23;3.83;;;16.20;99.90;;;;;;5031864;28;20483;-69
2021/07/29 00:10:50;;;;;;;4.13;3.83;;;16.10;99.90;;;;;;5031496;28;20464;-71
2021/07/29 00:13:17;;;;;;;3.77;3.47;;;16.10;99.90;;;;;;5031614;28;20467;-70
2021/07/29 00:15:44;;;;;;;3.90;3.33;;;16.10;99.90;;;;;;5031500;28;20498;-70
2021/07/29 00:20:55;;;;;;;3.90;3.60;;;16.10;99.90;;;;;;5031688;28;20444;-70
2021/07/29 00:23:23;;;;;;;4.10;3.40;;;16.00;99.90;;;;;;5031335;28;20471;-70
2021/07/29 00:25:50;;;;;;;5.63;3.83;;;16.10;99.90;;;;;;5031706;28;21052;-70
2021/07/29 00:28:16;;;;;;;3.90;3.60;;;16.10;99.90;;;;;;5030580;28;20492;-69
2021/07/29 00:30:43;;;;;;;4.83;4.33;;;16.00;99.90;;;;;;5030821;28;20480;-70
2021/07/29 00:33:10;;;;;;;4.10;3.63;;;16.00;99.90;;;;;;5031398;28;20467;-70
2021/07/29 00:35:37;;;;;;;6.00;3.93;;;16.00;99.90;;;;;;5031260;28;20491;-69
2021/07/29 00:38:04;;;;;;;3.90;3.60;;;16.00;99.90;;;;;;5031339;28;20456;-70
2021/07/29 00:40:32;;;;;;;4.70;4.10;;;16.00;99.90;;;;;;5030676;28;20467;-70
2021/07/29 00:42:59;;;;;;;3.60;3.30;;;15.90;99.90;;;;;;5031336;28;20467;-70
2021/07/29 00:45:26;;;;;;;3.80;3.47;;;15.90;99.90;;;;;;5030844;28;20579;-70
2021/07/29 00:47:54;;;;;;;3.80;3.50;;;15.80;99.90;;;;;;5031255;28;20491;-70
2021/07/29 00:50:20;;;;;;;4.53;3.63;;;15.80;99.90;;;;;;5030323;28;20960;-70
2021/07/29 00:52:48;;;;;;;3.87;3.57;;;15.70;99.90;;;;;;5031160;28;20465;-70
2021/07/29 00:55:15;;;;;;;3.63;3.33;;;15.60;99.90;;;;;;5030895;28;20496;-69
2021/07/29 00:57:44;;;;;;;3.90;3.40;;;15.50;99.90;;;;;;5030929;28;20460;-70
2021/07/29 01:00:12;;;;;;;4.00;3.47;;;15.50;99.90;;;;;;5030388;28;20897;-70
2021/07/29 01:02:39;;;;;;;4.00;3.60;;;15.40;99.90;;;;;;5030683;28;20463;-71
2021/07/29 01:05:10;;;;;;;4.20;3.63;;;15.30;99.90;;;;;;5030755;28;20484;-70
2021/07/29 01:07:37;;;;;;;3.90;3.60;;;15.30;99.90;;;;;;5030586;28;20488;-70
2021/07/29 01:10:05;;;;;;;4.30;3.07;;;15.30;99.90;;;;;;5030388;28;20463;-70
2021/07/29 01:12:32;;;;;;;5.03;3.37;;;15.30;99.90;;;;;;5030300;28;20842;-69
2021/07/29 01:15:01;;;;;;;4.40;3.83;;;15.30;99.90;;;;;;5030649;28;20488;-70
2021/07/29 01:17:30;;;;;;;5.33;3.83;;;15.30;99.90;;;;;;5030344;28;20471;-69
2021/07/29 01:19:58;;;;;;;4.20;3.83;;;15.30;99.90;;;;;;5030320;28;20563;-70
2021/07/29 01:22:32;;;;;;;4.83;3.60;;;15.40;99.90;;;;;;5030299;28;20471;-70
2021/07/29 01:24:59;;;;;;;4.30;3.90;;;15.30;99.90;;;;;;5030496;28;20484;-70
2021/07/29 01:27:29;;;;;;;4.20;3.43;;;15.40;99.90;;;;;;5030019;28;20464;-70
2021/07/29 01:29:57;;;;;;;3.90;3.60;;;15.40;99.90;;;;;;5030083;28;20817;-70
2021/07/29 01:32:24;;;;;;;3.70;3.20;;;15.40;99.90;;;;;;5030052;28;20468;-70
2021/07/29 01:34:51;;;;;;;3.83;3.53;;;15.40;99.90;;;;;;5030346;28;20508;-70
2021/07/29 01:37:17;;;;;;;4.60;4.03;;;15.50;99.90;;;;;;5030231;28;20468;-69
2021/07/29 01:39:45;;;;;;;4.97;4.50;;;15.50;99.90;;;;;;5029510;28;20835;-70
2021/07/29 01:42:12;;;;;;;5.63;4.10;;;15.50;99.90;;;;;;5030200;28;20471;-70
2021/07/29 01:44:39;;;;;;;4.10;3.70;;;15.50;99.90;;;;;;5029713;28;20491;-69
2021/07/29 01:47:05;;;;;;;4.20;3.63;;;15.50;99.90;;;;;;5030175;28;20468;-70
2021/07/29 01:49:32;;;;;;;4.00;3.60;;;15.50;99.90;;;;;;5029117;28;20491;-70
2021/07/29 01:51:59;;;;;;;5.97;4.03;;;15.50;99.90;;;;;;5030149;28;20959;-70
2021/07/29 01:54:26;;;;;;;4.93;4.10;;;15.50;99.90;;;;;;5029850;28;20833;-71
2021/07/29 01:56:54;;;;;;;4.33;3.77;;;15.50;99.90;;;;;;5029893;28;20468;-71
2021/07/29 01:59:21;;;;;;;3.90;3.60;;;15.60;99.90;;;;;;5029197;28;20487;-70
2021/07/29 02:01:47;;;;;;;4.20;3.80;;;15.50;99.90;;;;;;5029806;28;20460;-70
2021/07/29 02:04:14;;;;;;;3.73;3.43;;;15.40;99.90;;;;;;5029686;28;20956;-70
2021/07/29 02:06:41;;;;;;;4.20;3.30;;;15.40;99.90;;;;;;5029396;28;20460;-70
2021/07/29 02:09:07;;;;;;;5.20;3.50;;;15.30;99.90;;;;;;5029429;28;20495;-69
2021/07/29 02:11:35;;;;;;;5.70;3.43;;;15.30;99.90;;;;;;5029124;28;20460;-69
2021/07/29 02:14:03;;;;;;;4.07;3.67;;;15.30;99.90;;;;;;5029649;28;20881;-70
2021/07/29 02:16:30;;;;;;;3.80;3.50;;;15.20;99.90;;;;;;5029163;28;20480;-70
2021/07/29 02:18:57;;;;;;;4.10;3.50;;;15.20;99.90;;;;;;5029665;28;20460;-70
2021/07/29 02:21:23;;;;;;;4.33;3.93;;;15.20;99.90;;;;;;5028844;28;20475;-70
2021/07/29 02:23:50;;;;;;;4.30;3.90;;;15.20;99.90;;;;;;5029515;28;20464;-70
2021/07/29 02:26:17;;;;;;;3.77;3.40;;;15.20;99.90;;;;;;5029153;28;20828;-70
2021/07/29 02:28:43;;;;;;;4.27;3.87;;;15.20;99.90;;;;;;5029179;28;20488;-70
2021/07/29 02:31:12;;;;;;;5.60;3.70;;;15.20;99.90;;;;;;5029001;28;20464;-70
2021/07/29 02:33:39;;;;;;;4.40;4.00;;;15.20;99.90;;;;;;5028979;28;20499;-69
2021/07/29 02:36:06;;;;;;;5.43;4.00;;;15.20;99.90;;;;;;5029393;28;20550;-70
2021/07/29 02:38:33;;;;;;;3.43;3.13;;;15.20;99.90;;;;;;5028989;28;20490;-69
2021/07/29 02:41:00;;;;;;;4.30;3.77;;;15.10;99.90;;;;;;5028712;28;20464;-70
2021/07/29 02:43:27;;;;;;;5.40;4.00;;;15.10;99.90;;;;;;5028870;28;20496;-69
2021/07/29 02:45:53;;;;;;;5.07;3.80;;;15.00;99.90;;;;;;5029111;28;20488;-70
2021/07/29 02:48:22;;;;;;;3.50;3.20;;;15.00;99.90;;;;;;5029054;28;20484;-70
2021/07/29 02:50:53;;;;;;;4.10;3.70;;;15.00;99.90;;;;;;5028478;28;20462;-71
2021/07/29 02:53:20;;;;;;;4.77;4.27;;;15.00;99.90;;;;;;5028805;28;20492;-70
2021/07/29 02:55:47;;;;;;;3.50;3.20;;;15.00;99.90;;;;;;5028957;28;20554;-70
2021/07/29 02:58:14;;;;;;;4.53;4.00;;;15.00;99.90;;;;;;5029115;28;20460;-70
2021/07/29 03:00:40;;;;;;;4.20;3.80;;;15.00;99.90;;;;;;5028309;28;20842;-70
2021/07/29 03:03:07;;;;;;;4.97;4.47;;;15.10;99.90;;;;;;5029067;28;20468;-70
2021/07/29 03:05:35;;;;;;;5.33;4.47;;;15.10;99.90;;;;;;5028665;28;20485;-69
2021/07/29 03:08:02;;;;;;;4.83;4.33;;;15.10;99.90;;;;;;5029002;28;20546;-70
2021/07/29 03:10:29;;;;;;;5.83;4.43;;;15.10;99.90;;;;;;5028080;28;20488;-69
2021/07/29 03:12:56;;;;;;;8.53;3.80;;;15.00;99.90;;;;;;5029021;28;20499;-69
2021/07/29 03:15:22;;;;;;;4.80;4.30;;;15.10;99.90;;;;;;5028624;28;20487;-69
2021/07/29 03:17:49;;;;;;;4.63;4.17;;;15.10;99.90;;;;;;5028826;28;20475;-69
2021/07/29 03:20:16;;;;;;;4.80;4.13;;;15.10;99.90;;;;;;5028395;28;20468;-70
2021/07/29 03:22:44;;;;;;;5.57;4.50;;;15.00;99.90;;;;;;5028706;28;20472;-70
2021/07/29 03:25:11;;;;;;;4.77;4.30;;;15.00;99.90;;;;;;5028479;28;20483;-70
2021/07/29 03:27:38;;;;;;;4.83;4.43;;;15.10;99.90;;;;;;5028488;28;20464;-70
2021/07/29 03:30:05;;;;;;;4.33;3.83;;;15.10;99.90;;;;;;5028316;28;20496;-70
2021/07/29 03:32:32;;;;;;;4.13;3.73;;;15.00;99.90;;;;;;5028211;28;20986;-69
2021/07/29 03:34:59;;;;;;;4.60;4.20;;;15.00;99.90;;;;;;5028156;28;20479;-70
2021/07/29 03:37:25;;;;;;;5.17;4.67;;;15.00;99.90;;;;;;5028426;28;20476;-69
2021/07/29 03:39:53;;;;;;;4.90;4.10;;;15.00;99.90;;;;;;5028460;28;20464;-71
2021/07/29 03:42:22;;;;;;;5.07;4.67;;;15.00;99.90;;;;;;5028612;28;20495;-71
2021/07/29 03:44:49;;;;;;;5.03;4.30;;;15.00;99.90;;;;;;5028587;28;20576;-70
2021/07/29 03:47:15;;;;;;;4.50;3.90;;;15.00;99.90;;;;;;5028702;28;20487;-70
2021/07/29 03:49:42;;;;;;;5.30;4.80;;;15.10;99.90;;;;;;5027719;28;20491;-70
2021/07/29 03:52:09;;;;;;;5.53;4.33;;;15.10;99.90;;;;;;5028856;28;20460;-70
2021/07/29 03:54:35;;;;;;;5.30;4.80;;;15.00;99.90;;;;;;5027604;28;20472;-68
2021/07/29 03:57:04;;;;;;;4.80;4.40;;;15.00;99.90;;;;;;5027375;28;20837;-69
2021/07/29 03:59:31;;;;;;;5.57;4.40;;;15.00;99.90;;;;;;5026779;28;20475;-69
2021/07/29 04:01:58;;;;;;;4.70;4.30;;;15.00;99.90;;;;;;5031259;28;20542;-70
2021/07/29 04:04:24;;;;;;;4.50;4.10;;;15.00;99.90;;;;;;5028383;28;20542;-69
2021/07/29 04:06:51;;;;;;;4.80;4.30;;;15.00;99.90;;;;;;5031659;28;20460;-69
2021/07/29 04:09:18;;;;;;;6.13;4.10;;;15.10;99.90;;;;;;5030722;28;20476;-69
2021/07/29 04:11:44;;;;;;;5.00;3.87;;;15.00;99.90;;;;;;5031520;28;20933;-70
2021/07/29 04:14:12;;;;;;;4.90;4.47;;;15.00;99.90;;;;;;5030947;28;20843;-70
2021/07/29 04:16:39;;;;;;;4.47;4.07;;;15.00;99.90;;;;;;5157588;22;20489;-75
2021/07/29 04:19:07;;;;;;;4.60;4.20;;;15.00;99.90;;;;;;5091765;28;20458;-74
2021/07/29 04:21:34;;;;;;;5.80;4.43;;;15.00;99.90;;;;;;5092646;28;20462;-76
2021/07/29 04:24:00;;;;;;;4.43;4.00;;;15.00;99.90;;;;;;5089112;28;20457;-75
2021/07/29 04:26:27;;;;;;;5.70;4.77;;;15.00;99.90;;;;;;5091918;28;20481;-75
2021/07/29 04:28:54;;;;;;;4.00;3.60;;;15.00;99.90;;;;;;5091140;28;20486;-75
2021/07/29 04:31:22;;;;;;;4.20;3.80;;;15.00;99.90;;;;;;5090962;28;20465;-74
2021/07/29 04:33:49;;;;;;;4.70;4.10;;;15.00;99.90;;;;;;5091773;28;20468;-74
2021/07/29 04:36:16;;;;;;;5.70;4.10;;;15.10;99.90;;;;;;5092043;28;20485;-75
2021/07/29 04:38:43;;;;;;;5.27;4.77;;;15.10;99.90;;;;;;5091957;28;20500;-74
2021/07/29 04:41:09;;;;;;;4.80;4.33;;;15.10;99.90;;;;;;5091417;28;20493;-74
2021/07/29 04:43:36;;;;;;;4.67;3.90;;;15.10;99.90;;;;;;5091811;28;20833;-75
2021/07/29 04:46:03;;;;;;;4.63;4.23;;;15.10;99.90;;;;;;5091657;28;21017;-75
2021/07/29 04:48:32;;;;;;;4.33;3.93;;;15.20;99.90;;;;;;5091682;28;20465;-74
2021/07/29 04:51:01;;;;;;;4.20;3.80;;;15.10;99.90;;;;;;5091188;28;20461;-75
2021/07/29 04:53:28;;;;;;;4.57;4.07;;;15.20;99.90;;;;;;5091430;28;20953;-75
2021/07/29 04:55:54;;;;;;;4.57;4.13;;;15.20;99.90;;;;;;5091606;28;20857;-75
2021/07/29 04:58:21;;;;;;;5.10;4.40;;;15.30;99.90;;;;;;5091382;28;20465;-74
2021/07/29 05:00:48;;;;;;;4.53;4.13;;;15.30;99.90;;;;;;5090919;28;20470;-75
2021/07/29 05:03:15;;;;;;;7.07;3.70;;;15.20;99.90;;;;;;5091160;28;20458;-75
2021/07/29 05:05:43;;;;;;;3.67;3.37;;;15.20;99.90;;;;;;5091605;28;20895;-74
2021/07/29 05:08:09;;;;;;;4.20;3.80;;;15.20;99.90;;;;;;5091104;28;20484;-74
2021/07/29 05:10:36;;;;;;;5.27;4.00;;;15.30;99.90;;;;;;5090958;28;20493;-74
2021/07/29 05:13:03;;;;;;;3.67;3.23;;;15.30;99.90;;;;;;5081433;28;20466;-74
2021/07/29 05:15:30;;;;;;;5.33;3.80;;;15.30;99.90;;;;;;5070753;28;20490;-75
2021/07/29 05:17:56;;;;;;;4.10;3.80;;;15.30;99.90;;;;;;5073562;28;21033;-75
2021/07/29 05:20:24;;;;;;;5.70;4.00;;;15.40;99.90;;;;;;5082902;28;20484;-74
2021/07/29 05:22:52;;;;;;;4.00;3.60;;;15.40;99.90;;;;;;5085903;28;20473;-74
2021/07/29 05:25:23;;;;;;;4.10;3.70;;;15.40;99.90;;;;;;5070581;28;20482;-74
2021/07/29 05:27:50;;;;;;;4.70;3.60;;;15.50;99.90;;;;;;5070553;28;20459;-75
2021/07/29 05:30:17;;;;;;;8.57;3.60;;;15.50;99.90;;;;;;5070297;28;20489;-75
2021/07/29 05:32:44;;;;;;;4.20;3.40;;;15.60;99.90;;;;;;5070523;28;20533;-75
2021/07/29 05:35:11;;;;;;;3.67;3.30;;;15.70;99.90;;;;;;5070608;28;20478;-75
2021/07/29 05:37:38;;;;;;;4.63;3.57;;;15.80;99.90;;;;;;5070471;28;20467;-74
2021/07/29 05:40:08;;;;;;;4.47;4.07;;;15.80;99.90;;;;;;5069686;28;20465;-75
2021/07/29 05:42:35;;;;;;;3.77;3.00;;;15.90;99.90;;;;;;5070024;28;20465;-75
2021/07/29 05:45:02;;;;;;;5.57;3.23;;;16.00;99.90;;;;;;5070206;28;20578;-75
2021/07/29 05:47:29;;;;;;;5.60;3.57;;;16.10;99.90;;;;;;5070208;28;20486;-75
2021/07/29 05:49:56;;;;;;;4.30;3.63;;;16.10;99.90;;;;;;5069766;28;20846;-75
2021/07/29 05:52:22;;;;;;;4.23;3.67;;;16.20;99.90;;;;;;5070079;28;20466;-75
2021/07/29 05:54:49;;;;;;;3.70;3.40;;;16.30;99.90;;;;;;5070162;28;20993;-75
2021/07/29 05:57:17;;;;;;;5.20;3.83;;;16.30;99.90;;;;;;5069967;28;20465;-75
2021/07/29 05:59:44;;;;;;;3.17;2.90;;;16.30;99.90;;;;;;5069696;28;20458;-75
2021/07/29 06:02:10;;;;;;;5.17;3.57;;;16.30;99.90;;;;;;5069275;28;20977;-75
2021/07/29 06:04:37;;;;;;;3.67;3.37;;;16.40;99.90;;;;;;5069143;28;20487;-75
2021/07/29 06:07:04;;;;;;;3.57;3.07;;;16.50;99.90;;;;;;5069115;28;20463;-75
2021/07/29 06:09:31;;;;;;;4.10;3.60;;;16.50;99.90;;;;;;5068379;28;20521;-75
2021/07/29 06:11:58;;;;;;;4.83;3.33;;;16.60;99.90;;;;;;5069522;28;20466;-75
2021/07/29 06:14:26;;;;;;;4.00;3.60;;;16.60;99.90;;;;;;5068683;28;20462;-75
2021/07/29 06:16:53;;;;;;;8.53;3.87;;;16.60;99.90;;;;;;5068979;28;20474;-75
2021/07/29 06:19:29;;;;;;;4.17;3.77;;;16.70;99.90;;;;;;5068113;28;20463;-75
2021/07/29 06:21:56;;;;;;;4.90;4.00;;;16.70;99.90;;;;;;5069151;28;20552;-75
2021/07/29 06:24:23;;;;;;;5.73;3.80;;;16.80;99.90;;;;;;5068606;28;21015;-74
2021/07/29 06:26:50;;;;;;;3.73;3.43;;;16.90;99.90;;;;;;5068284;28;20458;-75
2021/07/29 06:29:17;;;;;;;3.50;3.20;;;16.90;99.90;;;;;;5068448;28;20475;-75
2021/07/29 06:31:45;;;;;;;3.67;3.37;;;17.00;99.90;;;;;;5068994;28;20469;-75
2021/07/29 06:34:12;;;;;;;3.60;3.30;;;17.00;99.90;;;;;;5068454;28;20465;-75
2021/07/29 06:36:38;;;;;;;3.30;3.10;;;17.00;99.90;;;;;;5068592;28;20537;-75
2021/07/29 06:39:06;;;;;;;3.40;3.10;;;17.10;99.90;;;;;;5068592;28;20469;-75
2021/07/29 06:41:32;;;;;;;3.53;3.10;;;17.10;99.90;;;;;;5068565;28;20585;-74
2021/07/29 06:44:00;;;;;;;3.97;3.37;;;17.20;99.90;;;;;;5068769;28;20811;-75
2021/07/29 06:46:27;;;;;;;3.73;3.40;;;17.20;99.90;;;;;;5068646;28;21075;-75
2021/07/29 06:48:55;;;;;;;4.30;3.40;;;17.30;99.90;;;;;;5068854;28;20490;-74
2021/07/29 06:51:22;;;;;;;4.00;3.27;;;17.30;99.90;;;;;;5067931;28;20490;-75
2021/07/29 06:53:50;;;;;;;5.40;3.57;;;17.40;99.90;;;;;;5068458;28;20520;-75
2021/07/29 06:56:16;;;;;;;3.70;3.40;;;17.40;99.90;;;;;;5068452;28;20482;-75
2021/07/29 06:58:43;;;;;;;3.70;3.40;;;17.50;99.90;;;;;;5068499;28;20466;-75
2021/07/29 07:01:09;;;;;;;5.40;3.30;;;17.60;99.90;;;;;;5067913;28;20451;-75
2021/07/29 07:03:36;;;;;;;3.40;3.10;;;17.60;99.90;;;;;;5068239;28;20976;-75
2021/07/29 07:06:06;;;;;;;4.90;3.17;;;17.70;99.90;;;;;;5068517;28;20509;-74
2021/07/29 07:08:33;;;;;;;3.40;3.10;;;17.80;99.90;;;;;;5068748;28;20465;-74
2021/07/29 07:11:00;;;;;;;3.80;3.40;;;17.80;99.90;;;;;;5067986;28;20856;-75
2021/07/29 07:13:27;;;;;;;5.40;3.20;;;17.80;99.90;;;;;;5068001;28;20507;-75
2021/07/29 07:15:54;;;;;;;4.90;3.20;;;17.90;99.90;;;;;;5068296;28;20494;-74
2021/07/29 07:18:21;;;;;;;3.83;3.27;;;18.00;99.90;;;;;;5068311;28;20465;-75
2021/07/29 07:20:48;;;;;;;6.17;3.47;;;18.00;99.90;;;;;;5067858;28;20454;-75
2021/07/29 07:23:16;;;;;;;4.50;3.30;;;18.20;99.90;;;;;;5068113;28;20462;-74
2021/07/29 07:25:43;;;;;;;3.40;3.10;;;18.20;99.90;;;;;;5058321;28;20505;-75
2021/07/29 07:28:09;;;;;;;4.20;3.47;;;18.30;99.90;;;;;;5060748;28;20450;-75
2021/07/29 07:30:39;;;;;;;3.63;3.30;;;18.40;99.90;;;;;;5067023;28;20493;-75
2021/07/29 07:33:06;;;;;;;3.33;3.03;;;18.50;99.90;;;;;;5068161;28;20470;-75
2021/07/29 07:35:32;;;;;;;5.03;3.33;;;18.60;99.90;;;;;;5068245;28;20486;-75
2021/07/29 07:37:59;;;;;;;3.90;3.27;;;18.70;99.90;;;;;;5069958;28;20462;-75
2021/07/29 07:40:27;;;;;;;4.73;3.40;;;18.80;99.90;;;;;;5071206;28;20458;-75
2021/07/29 07:42:55;;;;;;;7.73;3.70;;;18.90;99.90;;;;;;5071782;28;21002;-75
2021/07/29 07:45:22;;;;;;;3.90;3.43;;;19.00;99.90;;;;;;5071666;28;20484;-74
2021/07/29 07:47:49;;;;;;;4.30;3.63;;;19.00;99.90;;;;;;5071859;28;21325;-75
2021/07/29 07:50:16;;;;;;;4.60;3.70;;;19.00;99.90;;;;;;5071086;28;20481;-75
2021/07/29 07:52:42;;;;;;;3.30;2.93;;;19.00;99.90;;;;;;5071761;28;20473;-74
2021/07/29 07:55:09;;;;;;;5.63;3.63;;;19.00;99.90;;;;;;5071398;28;20728;-75
2021/07/29 07:57:37;;;;;;;3.60;3.30;;;19.00;99.90;;;;;;5072032;28;20462;-75
2021/07/29 08:00:05;;;;;;;3.70;3.40;;;18.90;99.90;;;;;;5072658;28;20501;-74
2021/07/29 08:02:31;;;;;;;4.93;3.20;;;19.00;99.90;;;;;;5073496;28;20999;-74
2021/07/29 08:04:58;;;;;;;4.37;3.50;;;18.90;99.90;;;;;;5073828;28;20478;-75
2021/07/29 08:07:25;;;;;;;4.40;3.83;;;18.90;99.90;;;;;;5073634;28;20813;-75
2021/07/29 08:09:51;;;;;;;3.60;3.30;;;18.90;99.90;;;;;;5073131;28;20867;-74
2021/07/29 08:12:18;;;;;;;6.90;3.50;;;19.00;99.90;;;;;;5074000;28;20558;-74
2021/07/29 08:14:46;;;;;;;4.20;3.77;;;19.00;99.90;;;;;;5074167;28;20493;-75
2021/07/29 08:17:13;;;;;;;4.17;3.50;;;19.10;99.90;;;;;;5073691;28;20954;-75
2021/07/29 08:19:40;;;;;;;4.20;3.30;;;19.10;99.90;;;;;;5074945;28;20851;-75
2021/07/29 08:22:06;;;;;;;4.10;3.70;;;19.20;99.90;;;;;;5074538;28;20465;-72
2021/07/29 08:24:34;;;;;;;5.80;3.73;;;19.20;99.90;;;;;;5074358;28;20478;-74
2021/07/29 08:27:01;;;;;;;3.90;3.60;;;19.30;99.90;;;;;;5075011;28;20519;-75
2021/07/29 08:29:30;;;;;;;3.57;3.27;;;19.40;99.90;;;;;;5073547;28;20462;-75
2021/07/29 08:31:58;;;;;;;4.23;3.30;;;19.40;99.90;;;;;;5074945;28;20459;-75
2021/07/29 08:34:25;;;;;;;3.67;3.07;;;19.40;99.90;;;;;;5074701;28;21384;-75
2021/07/29 08:36:52;;;;;;;3.60;3.30;;;19.50;99.90;;;;;;5074769;28;20458;-75
2021/07/29 08:39:18;;;;;;;4.70;3.37;;;19.50;99.90;;;;;;5073568;28;20973;-75
2021/07/29 08:41:45;;;;;;;3.80;3.50;;;19.50;99.90;;;;;;5073913;28;20834;-74
2021/07/29 08:44:12;;;;;;;3.57;3.27;;;19.50;99.90;;;;;;5068278;28;20455;-74
2021/07/29 08:46:44;;;;;;;3.80;3.40;;;19.60;99.90;;;;;;5059514;28;20808;-74
2021/07/29 08:49:14;;;;;;;4.90;3.30;;;19.70;99.90;;;;;;5071045;28;20459;-74
2021/07/29 08:51:41;;;;;;;3.97;3.57;;;19.70;99.90;;;;;;5072682;28;20482;-75
2021/07/29 08:54:11;;;;;;;4.23;3.83;;;19.70;99.90;;;;;;5073768;28;20462;-75
2021/07/29 08:56:38;;;;;;;4.17;3.20;;;19.70;99.90;;;;;;5073707;28;20458;-75
2021/07/29 08:59:07;;;;;;;4.63;3.60;;;19.70;99.90;;;;;;5073986;28;20497;-75
2021/07/29 09:01:41;;;;;;;5.33;3.60;;;19.70;99.90;;;;;;5074037;28;20467;-74
2021/07/29 09:04:12;;;;;;;5.73;3.67;;;19.70;99.90;;;;;;5073720;28;20458;-75
2021/07/29 09:06:54;;;;;;;4.90;3.63;;;19.70;99.90;;;;;;5071384;28;20469;-75
2021/07/29 09:09:37;;;;;;;4.73;3.43;;;19.80;99.90;;;;;;5072532;28;20523;-75
2021/07/29 09:12:14;;;;;;;4.50;3.43;;;19.90;99.90;;;;;;5073583;28;20478;-75
2021/07/29 09:14:41;;;;;;;3.83;3.53;;;20.00;99.90;;;;;;5073414;28;20486;-75
2021/07/29 09:17:08;;;;;;;5.60;3.67;;;20.10;99.90;;;;;;5072807;28;20493;-76
2021/07/29 09:19:37;;;;;;;3.53;3.23;;;20.20;99.90;;;;;;5072832;28;20459;-75
2021/07/29 09:22:15;;;;;;;3.73;3.43;;;20.30;99.90;;;;;;5073351;28;20454;-75
2021/07/29 09:24:56;;;;;;;4.80;4.30;;;20.40;99.90;;;;;;5073483;28;20482;-76
2021/07/29 09:27:23;;;;;;;4.30;3.90;;;20.60;99.90;;;;;;5073228;28;20764;-75
2021/07/29 09:29:50;;;;;;;4.47;4.07;;;20.70;99.90;;;;;;5073201;28;20885;-75
2021/07/29 09:32:17;;;;;;;4.43;4.03;;;20.80;99.90;;;;;;5073945;28;20462;-76
2021/07/29 09:34:47;;;;;;;4.33;3.90;;;20.90;99.90;;;;;;5073838;28;20482;-75
2021/07/29 09:37:15;;;;;;;5.80;3.93;;;21.00;99.90;;;;;;5072871;28;20454;-75
2021/07/29 09:39:43;;;;;;;3.93;3.37;;;21.10;99.90;;;;;;5073274;28;20454;-74
2021/07/29 09:42:21;;;;;;;4.33;3.70;;;21.10;99.90;;;;;;5074218;28;20977;-75
2021/07/29 09:44:50;;;;;;;4.33;3.93;;;21.20;99.90;;;;;;5073629;28;20816;-76
2021/07/29 09:47:18;;;;;;;3.83;3.43;;;21.20;99.90;;;;;;5073829;28;20971;-74
2021/07/29 09:49:48;;;;;;;4.53;3.00;;;21.20;99.90;;;;;;5073885;28;20454;-75
2021/07/29 09:52:14;;;;;;;4.03;3.60;;;21.20;99.90;;;;;;5072526;28;20505;-75
2021/07/29 09:54:44;;;;;;;4.00;3.43;;;21.20;99.90;;;;;;5073064;28;20475;-75
2021/07/29 09:57:12;;;;;;;4.53;3.80;;;21.30;99.90;;;;;;5073160;28;20466;-75
2021/07/29 09:59:39;;;;;;;5.23;3.90;;;21.50;99.90;;;;;;5073618;28;20458;-75
2021/07/29 10:02:07;;;;;;;4.10;3.70;;;21.60;99.90;;;;;;5073767;28;20465;-75
2021/07/29 10:04:40;;;;;;;3.97;3.33;;;21.70;99.90;;;;;;5073722;28;20482;-75
2021/07/29 10:07:17;;;;;;;4.80;4.10;;;21.80;99.90;;;;;;5073990;28;20462;-75
2021/07/29 10:09:47;;;;;;;6.50;4.30;;;21.90;99.90;;;;;;5073635;28;20469;-75
2021/07/29 10:12:20;;;;;;;3.53;3.23;;;22.10;99.90;;;;;;5074119;28;20509;-75
2021/07/29 10:14:48;;;;;;;3.53;3.23;;;22.20;99.90;;;;;;5073285;28;20517;-74
2021/07/29 10:17:15;;;;;;;4.67;3.40;;;22.30;99.90;;;;;;5139495;22;20862;-68
2021/07/29 10:20:15;;;;;;;4.00;3.60;;;22.30;99.90;;;;;;5067834;28;20835;-68
2021/07/29 10:22:44;;;;;;;4.07;3.50;;;22.30;99.90;;;;;;5069238;28;20562;-68
2021/07/29 10:25:12;;;;;;;3.97;3.57;;;22.30;99.90;;;;;;5060546;28;20848;-69
2021/07/29 10:27:39;;;;;;;4.17;3.77;;;22.20;99.90;;;;;;5049025;28;20973;-68
2021/07/29 10:30:30;;;;;;;3.90;3.50;;;22.20;99.90;;;;;;5048420;28;20462;-69
2021/07/29 10:32:57;;;;;;;3.83;3.17;;;22.10;99.90;;;;;;5049096;28;20843;-68
2021/07/29 10:35:39;;;;;;;4.20;3.63;;;22.10;99.90;;;;;;5048769;28;20515;-68
2021/07/29 10:38:07;;;;;;;4.50;3.70;;;22.20;99.90;;;;;;5049042;28;20462;-69
2021/07/29 10:40:46;;;;;;;4.70;3.60;;;22.20;99.90;;;;;;5048021;28;21078;-68
2021/07/29 10:43:38;;;;;;;3.83;3.53;;;22.10;99.90;;;;;;5047292;28;20463;-68
2021/07/29 10:46:05;;;;;;;3.90;3.50;;;22.00;99.90;;;;;;5047862;28;20476;-68
2021/07/29 10:49:15;;;;;;;4.10;3.80;;;22.00;99.90;;;;;;5048706;28;20914;-68
2021/07/29 10:52:07;;;;;;;4.37;3.97;;;22.00;99.90;;;;;;5040820;28;20487;-68
2021/07/29 10:54:36;;;;;;;4.90;4.00;;;22.20;99.90;;;;;;5039946;28;20518;-68
2021/07/29 10:57:04;;;;;;;4.30;3.90;;;22.30;99.90;;;;;;5048392;28;20491;-69
2021/07/29 10:59:32;;;;;;;4.27;3.87;;;22.30;99.90;;;;;;5047963;28;20459;-70
2021/07/29 11:02:00;;;;;;;4.03;3.70;;;22.30;99.90;;;;;;5048190;28;20459;-70
2021/07/29 11:04:29;;;;;;;4.40;3.60;;;22.40;99.90;;;;;;5048347;28;20468;-70
2021/07/29 11:06:59;;;;;;;7.87;4.20;;;22.50;99.90;;;;;;5047968;28;20835;-70
2021/07/29 11:09:30;;;;;;;4.87;4.20;;;22.60;99.90;;;;;;5047878;28;20466;-70
2021/07/29 11:11:59;;;;;;;4.70;3.90;;;22.70;99.90;;;;;;5047957;28;20491;-70
2021/07/29 11:14:27;;;;;;;3.93;3.63;;;22.70;99.90;;;;;;5052506;28;20463;-70
2021/07/29 11:16:57;;;;;;;4.33;3.93;;;22.70;99.90;;;;;;5051981;28;20698;-70
2021/07/29 11:19:24;;;;;;;7.83;4.57;;;22.90;99.90;;;;;;5052082;28;20466;-70
2021/07/29 11:22:03;;;;;;;4.30;3.70;;;22.90;99.90;;;;;;5052040;28;20462;-70
2021/07/29 11:24:30;;;;;;;7.80;4.27;;;23.10;99.90;;;;;;5052175;28;20892;-70
2021/07/29 11:26:58;;;;;;;3.90;3.50;;;23.20;99.90;;;;;;5052254;28;20458;-71
2021/07/29 11:29:25;;;;;;;3.90;3.50;;;23.30;99.90;;;;;;5051411;28;20694;-70
2021/07/29 11:31:53;;;;;;;5.10;4.00;;;23.40;99.90;;;;;;5051898;28;20992;-70
2021/07/29 11:34:20;;;;;;;4.33;3.60;;;23.50;99.90;;;;;;5051642;28;20478;-69
2021/07/29 11:36:53;;;;;;;4.13;3.73;;;23.60;99.90;;;;;;5052094;28;20463;-70
2021/07/29 11:39:20;;;;;;;3.73;3.43;;;23.60;99.90;;;;;;5044735;28;20542;-69
2021/07/29 11:41:52;;;;;;;4.70;3.70;;;23.50;99.90;;;;;;5050832;28;20460;-70
2021/07/29 11:44:20;;;;;;;4.30;3.90;;;23.50;99.90;;;;;;5048717;28;20464;-70
2021/07/29 11:46:54;;;;;;;3.90;3.60;;;23.50;99.90;;;;;;5050049;28;20455;-69
2021/07/29 11:49:21;;;;;;;4.60;4.00;;;23.60;99.90;;;;;;5049128;28;20477;-70
2021/07/29 11:52:03;;;;;;;4.77;4.27;;;23.60;99.90;;;;;;5050221;28;21009;-70
2021/07/29 11:54:31;;;;;;;3.80;3.40;;;23.80;99.90;;;;;;5050072;28;20483;-69
2021/07/29 11:56:57;;;;;;;4.57;4.00;;;23.90;99.90;;;;;;5048217;28;20487;-70
2021/07/29 11:59:26;;;;;;;4.67;4.20;;;23.90;99.90;;;;;;5049376;28;20494;-70
2021/07/29 12:01:55;;;;;;;4.33;3.50;;;23.90;99.90;;;;;;5068794;28;20450;-69
2021/07/29 12:04:22;;;;;;;3.53;3.23;;;24.00;99.90;;;;;;5070996;28;20819;-70
2021/07/29 12:06:51;;;;;;;4.37;3.97;;;24.10;99.90;;;;;;5071309;28;20458;-69
2021/07/29 12:09:18;;;;;;;4.20;3.80;;;24.20;99.90;;;;;;5070812;28;20481;-70
2021/07/29 12:11:45;;;;;;;3.70;3.40;;;24.20;99.90;;;;;;5052709;28;20486;-70
2021/07/29 12:14:13;;;;;;;4.37;3.90;;;24.20;99.90;;;;;;5058470;28;20460;-70
2021/07/29 12:16:46;;;;;;;4.10;3.73;;;24.00;99.90;;;;;;5054219;28;20478;-70
2021/07/29 12:19:14;;;;;;;4.20;3.90;;;24.00;99.90;;;;;;5049212;28;20461;-70
2021/07/29 12:21:40;;;;;;;6.10;4.00;;;24.00;99.90;;;;;;5048445;28;20459;-70
2021/07/29 12:24:07;;;;;;;4.43;4.03;;;24.00;99.90;;;;;;5048572;28;20455;-70
2021/07/29 12:26:34;;;;;;;4.40;3.90;;;23.90;99.90;;;;;;5050875;28;20490;-70
2021/07/29 12:29:01;;;;;;;5.13;4.20;;;23.80;99.90;;;;;;5050836;28;20550;-70
2021/07/29 12:31:29;;;;;;;4.60;4.00;;;23.50;99.90;;;;;;5050088;28;20490;-70
2021/07/29 12:34:00;;;;;;;4.73;4.23;;;23.30;99.90;;;;;;5050506;28;20471;-70
2021/07/29 12:36:41;;;;;;;3.70;3.30;;;23.20;99.90;;;;;;5071336;28;20504;-71
2021/07/29 12:39:08;;;;;;;4.07;3.77;;;23.10;99.90;;;;;;5070478;28;20493;-70
2021/07/29 12:41:36;;;;;;;4.67;4.00;;;23.10;99.90;;;;;;5070532;28;20469;-71
2021/07/29 12:44:07;;;;;;;4.13;3.77;;;23.30;99.90;;;;;;5070077;28;20458;-70
2021/07/29 12:46:33;;;;;;;4.30;3.87;;;23.50;99.90;;;;;;5070624;28;20482;-70
2021/07/29 12:49:01;;;;;;;4.33;3.90;;;23.80;99.90;;;;;;5069243;28;20494;-70
2021/07/29 12:51:35;;;;;;;4.60;4.10;;;23.90;99.90;;;;;;5068731;28;20486;-70
2021/07/29 12:54:02;;;;;;;4.30;3.90;;;24.00;99.90;;;;;;5068204;28;20952;-70
2021/07/29 12:56:29;;;;;;;3.77;3.37;;;24.20;99.90;;;;;;5068966;28;20492;-70